sensor_id;sensor_type;location;lat;lon;timestamp;P1;durP1;ratioP1;P2;durP2;ratioP2
10090;SDS011;5084;51.386;6.778;2023-04-06T00:01:09;5.17;;;4.30;;
10090;SDS011;5084;51.386;6.778;2023-04-06T00:03:36;5.20;;;3.80;;
10090;SDS011;5084;51.386;6.778;2023-04-06T00:06:02;3.70;;;3.23;;
10090;SDS011;5084;51.386;6.778;2023-04-06T00:08:28;5.80;;;3.90;;
10090;SDS011;5084;51.386;6.778;2023-04-06T00:10:54;5.57;;;4.20;;
10090;SDS011;5084;51.386;6.778;2023-04-06T00:13:20;5.87;;;4.30;;
10090;SDS011;5084;51.386;6.778;2023-04-06T00:15:47;4.33;;;3.50;;
10090;SDS011;5084;51.386;6.778;2023-04-06T00:18:13;5.50;;;4.37;;
10090;SDS011;5084;51.386;6.778;2023-04-06T00:20:39;4.87;;;3.67;;
10090;SDS011;5084;51.386;6.778;2023-04-06T00:23:05;4.00;;;3.30;;
10090;SDS011;5084;51.386;6.778;2023-04-06T00:25:31;4.53;;;3.80;;
10090;SDS011;5084;51.386;6.778;2023-04-06T00:27:57;3.77;;;3.37;;
10090;SDS011;5084;51.386;6.778;2023-04-06T00:30:23;5.80;;;3.83;;
10090;SDS011;5084;51.386;6.778;2023-04-06T00:32:50;3.77;;;3.47;;
10090;SDS011;5084;51.386;6.778;2023-04-06T00:35:16;4.47;;;3.90;;
10090;SDS011;5084;51.386;6.778;2023-04-06T00:37:42;4.50;;;3.77;;
10090;SDS011;5084;51.386;6.778;2023-04-06T00:40:08;3.90;;;3.50;;
10090;SDS011;5084;51.386;6.778;2023-04-06T00:42:34;5.50;;;4.37;;
10090;SDS011;5084;51.386;6.778;2023-04-06T00:45:01;3.83;;;3.50;;
10090;SDS011;5084;51.386;6.778;2023-04-06T00:47:27;5.50;;;3.37;;
10090;SDS011;5084;51.386;6.778;2023-04-06T00:49:54;4.33;;;3.67;;
10090;SDS011;5084;51.386;6.778;2023-04-06T00:52:20;3.50;;;3.17;;
10090;SDS011;5084;51.386;6.778;2023-04-06T00:54:46;4.13;;;3.47;;
10090;SDS011;5084;51.386;6.778;2023-04-06T00:57:12;3.80;;;3.40;;
10090;SDS011;5084;51.386;6.778;2023-04-06T00:59:39;3.40;;;3.10;;
10090;SDS011;5084;51.386;6.778;2023-04-06T01:02:06;4.43;;;3.53;;
10090;SDS011;5084;51.386;6.778;2023-04-06T01:04:32;3.70;;;3.30;;
10090;SDS011;5084;51.386;6.778;2023-04-06T01:06:58;5.33;;;4.37;;
10090;SDS011;5084;51.386;6.778;2023-04-06T01:09:24;4.27;;;3.87;;
10090;SDS011;5084;51.386;6.778;2023-04-06T01:11:51;4.17;;;3.40;;
10090;SDS011;5084;51.386;6.778;2023-04-06T01:14:17;3.90;;;3.50;;
10090;SDS011;5084;51.386;6.778;2023-04-06T01:16:43;3.60;;;3.30;;
10090;SDS011;5084;51.386;6.778;2023-04-06T01:19:10;5.23;;;3.90;;
10090;SDS011;5084;51.386;6.778;2023-04-06T01:21:37;3.73;;;3.07;;
10090;SDS011;5084;51.386;6.778;2023-04-06T01:24:03;4.43;;;3.60;;
10090;SDS011;5084;51.386;6.778;2023-04-06T01:26:29;4.30;;;3.90;;
10090;SDS011;5084;51.386;6.778;2023-04-06T01:28:55;4.87;;;3.90;;
10090;SDS011;5084;51.386;6.778;2023-04-06T01:31:22;6.33;;;3.60;;
10090;SDS011;5084;51.386;6.778;2023-04-06T01:33:48;4.10;;;3.70;;
10090;SDS011;5084;51.386;6.778;2023-04-06T01:36:15;4.03;;;3.63;;
10090;SDS011;5084;51.386;6.778;2023-04-06T01:38:41;4.00;;;3.23;;
10090;SDS011;5084;51.386;6.778;2023-04-06T01:41:07;5.77;;;3.73;;
10090;SDS011;5084;51.386;6.778;2023-04-06T01:43:34;4.47;;;3.73;;
10090;SDS011;5084;51.386;6.778;2023-04-06T01:46:00;4.47;;;3.47;;
10090;SDS011;5084;51.386;6.778;2023-04-06T01:48:26;4.63;;;4.03;;
10090;SDS011;5084;51.386;6.778;2023-04-06T01:50:53;3.77;;;3.33;;
10090;SDS011;5084;51.386;6.778;2023-04-06T01:53:19;4.70;;;3.73;;
10090;SDS011;5084;51.386;6.778;2023-04-06T01:55:45;3.97;;;3.57;;
10090;SDS011;5084;51.386;6.778;2023-04-06T01:58:12;4.57;;;3.53;;
10090;SDS011;5084;51.386;6.778;2023-04-06T02:00:38;4.33;;;3.80;;
10090;SDS011;5084;51.386;6.778;2023-04-06T02:03:04;4.33;;;3.53;;
10090;SDS011;5084;51.386;6.778;2023-04-06T02:05:31;3.47;;;3.13;;
10090;SDS011;5084;51.386;6.778;2023-04-06T02:08:02;4.10;;;3.50;;
10090;SDS011;5084;51.386;6.778;2023-04-06T02:10:28;5.60;;;3.47;;
10090;SDS011;5084;51.386;6.778;2023-04-06T02:12:54;4.10;;;3.50;;
10090;SDS011;5084;51.386;6.778;2023-04-06T02:15:20;5.00;;;3.60;;
10090;SDS011;5084;51.386;6.778;2023-04-06T02:17:47;4.73;;;3.53;;
10090;SDS011;5084;51.386;6.778;2023-04-06T02:20:13;7.30;;;4.37;;
10090;SDS011;5084;51.386;6.778;2023-04-06T02:22:39;4.40;;;4.00;;
10090;SDS011;5084;51.386;6.778;2023-04-06T02:25:05;3.93;;;3.50;;
10090;SDS011;5084;51.386;6.778;2023-04-06T02:27:31;4.40;;;3.87;;
10090;SDS011;5084;51.386;6.778;2023-04-06T02:29:57;5.83;;;3.93;;
10090;SDS011;5084;51.386;6.778;2023-04-06T02:32:24;5.43;;;3.73;;
10090;SDS011;5084;51.386;6.778;2023-04-06T02:34:50;4.57;;;3.70;;
10090;SDS011;5084;51.386;6.778;2023-04-06T02:37:16;4.80;;;4.10;;
10090;SDS011;5084;51.386;6.778;2023-04-06T02:39:42;4.57;;;4.17;;
10090;SDS011;5084;51.386;6.778;2023-04-06T02:42:08;4.60;;;4.00;;
10090;SDS011;5084;51.386;6.778;2023-04-06T02:44:34;4.87;;;3.63;;
10090;SDS011;5084;51.386;6.778;2023-04-06T02:47:00;4.57;;;3.97;;
10090;SDS011;5084;51.386;6.778;2023-04-06T02:49:26;4.17;;;3.77;;
10090;SDS011;5084;51.386;6.778;2023-04-06T02:51:52;5.43;;;3.77;;
10090;SDS011;5084;51.386;6.778;2023-04-06T02:54:18;4.63;;;3.77;;
10090;SDS011;5084;51.386;6.778;2023-04-06T02:56:45;6.50;;;4.47;;
10090;SDS011;5084;51.386;6.778;2023-04-06T02:59:11;4.73;;;4.03;;
10090;SDS011;5084;51.386;6.778;2023-04-06T03:01:37;5.50;;;4.07;;
10090;SDS011;5084;51.386;6.778;2023-04-06T03:04:03;4.73;;;3.93;;
10090;SDS011;5084;51.386;6.778;2023-04-06T03:06:29;4.30;;;3.73;;
10090;SDS011;5084;51.386;6.778;2023-04-06T03:08:55;5.33;;;4.00;;
10090;SDS011;5084;51.386;6.778;2023-04-06T03:11:21;4.97;;;3.90;;
10090;SDS011;5084;51.386;6.778;2023-04-06T03:13:47;3.97;;;3.40;;
10090;SDS011;5084;51.386;6.778;2023-04-06T03:16:13;6.20;;;4.37;;
10090;SDS011;5084;51.386;6.778;2023-04-06T03:18:39;5.30;;;4.07;;
10090;SDS011;5084;51.386;6.778;2023-04-06T03:21:05;5.63;;;4.17;;
10090;SDS011;5084;51.386;6.778;2023-04-06T03:23:31;5.40;;;4.50;;
10090;SDS011;5084;51.386;6.778;2023-04-06T03:25:57;5.03;;;4.50;;
10090;SDS011;5084;51.386;6.778;2023-04-06T03:28:24;4.70;;;4.20;;
10090;SDS011;5084;51.386;6.778;2023-04-06T03:30:50;4.57;;;3.97;;
10090;SDS011;5084;51.386;6.778;2023-04-06T03:33:16;5.83;;;5.33;;
10090;SDS011;5084;51.386;6.778;2023-04-06T03:35:42;4.43;;;3.83;;
10090;SDS011;5084;51.386;6.778;2023-04-06T03:38:08;6.97;;;4.47;;
10090;SDS011;5084;51.386;6.778;2023-04-06T03:40:34;4.90;;;4.40;;
10090;SDS011;5084;51.386;6.778;2023-04-06T03:43:01;6.60;;;4.93;;
10090;SDS011;5084;51.386;6.778;2023-04-06T03:45:27;4.03;;;3.60;;
10090;SDS011;5084;51.386;6.778;2023-04-06T03:47:53;5.17;;;4.37;;
10090;SDS011;5084;51.386;6.778;2023-04-06T03:50:19;5.43;;;4.57;;
10090;SDS011;5084;51.386;6.778;2023-04-06T03:52:45;4.50;;;3.70;;
10090;SDS011;5084;51.386;6.778;2023-04-06T03:55:11;4.50;;;4.10;;
10090;SDS011;5084;51.386;6.778;2023-04-06T03:57:37;5.03;;;4.63;;
10090;SDS011;5084;51.386;6.778;2023-04-06T04:00:04;6.30;;;4.23;;
10090;SDS011;5084;51.386;6.778;2023-04-06T04:02:30;4.33;;;3.93;;
10090;SDS011;5084;51.386;6.778;2023-04-06T04:04:56;5.77;;;4.83;;
10090;SDS011;5084;51.386;6.778;2023-04-06T04:07:22;6.53;;;4.97;;
10090;SDS011;5084;51.386;6.778;2023-04-06T04:09:48;5.17;;;4.13;;
10090;SDS011;5084;51.386;6.778;2023-04-06T04:12:14;5.77;;;4.57;;
10090;SDS011;5084;51.386;6.778;2023-04-06T04:14:41;5.10;;;4.17;;
10090;SDS011;5084;51.386;6.778;2023-04-06T04:17:08;4.87;;;4.23;;
10090;SDS011;5084;51.386;6.778;2023-04-06T04:19:35;5.40;;;4.20;;
10090;SDS011;5084;51.386;6.778;2023-04-06T04:22:01;8.00;;;4.47;;
10090;SDS011;5084;51.386;6.778;2023-04-06T04:24:29;5.60;;;4.80;;
10090;SDS011;5084;51.386;6.778;2023-04-06T04:26:56;5.77;;;4.73;;
10090;SDS011;5084;51.386;6.778;2023-04-06T04:29:22;6.03;;;5.50;;
10090;SDS011;5084;51.386;6.778;2023-04-06T04:31:48;7.37;;;4.90;;
10090;SDS011;5084;51.386;6.778;2023-04-06T04:34:15;5.83;;;5.10;;
10090;SDS011;5084;51.386;6.778;2023-04-06T04:36:41;6.50;;;4.60;;
10090;SDS011;5084;51.386;6.778;2023-04-06T04:39:07;6.13;;;5.37;;
10090;SDS011;5084;51.386;6.778;2023-04-06T04:41:33;6.23;;;4.90;;
10090;SDS011;5084;51.386;6.778;2023-04-06T04:44:00;6.73;;;4.67;;
10090;SDS011;5084;51.386;6.778;2023-04-06T04:46:26;5.90;;;4.50;;
10090;SDS011;5084;51.386;6.778;2023-04-06T04:48:52;7.10;;;4.50;;
10090;SDS011;5084;51.386;6.778;2023-04-06T04:51:18;6.17;;;4.77;;
10090;SDS011;5084;51.386;6.778;2023-04-06T04:53:47;5.70;;;4.43;;
10090;SDS011;5084;51.386;6.778;2023-04-06T04:56:13;5.43;;;4.50;;
10090;SDS011;5084;51.386;6.778;2023-04-06T04:58:39;6.60;;;5.00;;
10090;SDS011;5084;51.386;6.778;2023-04-06T05:01:05;5.97;;;4.53;;
10090;SDS011;5084;51.386;6.778;2023-04-06T05:03:32;5.17;;;4.47;;
10090;SDS011;5084;51.386;6.778;2023-04-06T05:05:58;5.43;;;4.90;;
10090;SDS011;5084;51.386;6.778;2023-04-06T05:08:24;5.27;;;4.13;;
10090;SDS011;5084;51.386;6.778;2023-04-06T05:10:50;6.03;;;4.83;;
10090;SDS011;5084;51.386;6.778;2023-04-06T05:13:16;5.87;;;4.80;;
10090;SDS011;5084;51.386;6.778;2023-04-06T05:15:42;6.63;;;5.07;;
10090;SDS011;5084;51.386;6.778;2023-04-06T05:18:09;6.40;;;4.33;;
10090;SDS011;5084;51.386;6.778;2023-04-06T05:20:36;6.30;;;4.93;;
10090;SDS011;5084;51.386;6.778;2023-04-06T05:23:02;5.67;;;4.87;;
10090;SDS011;5084;51.386;6.778;2023-04-06T05:25:28;5.97;;;4.77;;
10090;SDS011;5084;51.386;6.778;2023-04-06T05:27:54;4.63;;;4.10;;
10090;SDS011;5084;51.386;6.778;2023-04-06T05:30:20;5.50;;;4.87;;
10090;SDS011;5084;51.386;6.778;2023-04-06T05:32:47;5.37;;;4.70;;
10090;SDS011;5084;51.386;6.778;2023-04-06T05:35:13;5.77;;;4.83;;
10090;SDS011;5084;51.386;6.778;2023-04-06T05:37:39;7.63;;;4.50;;
10090;SDS011;5084;51.386;6.778;2023-04-06T05:40:05;5.40;;;4.57;;
10090;SDS011;5084;51.386;6.778;2023-04-06T05:42:41;6.20;;;5.07;;
10090;SDS011;5084;51.386;6.778;2023-04-06T05:45:08;6.03;;;4.60;;
10090;SDS011;5084;51.386;6.778;2023-04-06T05:47:35;5.83;;;5.13;;
10090;SDS011;5084;51.386;6.778;2023-04-06T05:50:02;7.00;;;5.00;;
10090;SDS011;5084;51.386;6.778;2023-04-06T05:52:28;5.37;;;4.60;;
10090;SDS011;5084;51.386;6.778;2023-04-06T05:54:54;5.63;;;4.40;;
10090;SDS011;5084;51.386;6.778;2023-04-06T05:57:20;5.50;;;4.67;;
10090;SDS011;5084;51.386;6.778;2023-04-06T05:59:47;5.80;;;4.50;;
10090;SDS011;5084;51.386;6.778;2023-04-06T06:02:13;7.13;;;4.67;;
10090;SDS011;5084;51.386;6.778;2023-04-06T06:04:39;6.80;;;4.90;;
10090;SDS011;5084;51.386;6.778;2023-04-06T06:07:05;8.73;;;4.97;;
10090;SDS011;5084;51.386;6.778;2023-04-06T06:09:31;5.67;;;4.80;;
10090;SDS011;5084;51.386;6.778;2023-04-06T06:11:57;4.90;;;4.30;;
10090;SDS011;5084;51.386;6.778;2023-04-06T06:14:23;5.87;;;4.50;;
10090;SDS011;5084;51.386;6.778;2023-04-06T06:16:49;5.83;;;4.13;;
10090;SDS011;5084;51.386;6.778;2023-04-06T06:19:15;6.13;;;4.57;;
10090;SDS011;5084;51.386;6.778;2023-04-06T06:21:44;6.60;;;4.70;;
10090;SDS011;5084;51.386;6.778;2023-04-06T06:24:10;5.83;;;4.40;;
10090;SDS011;5084;51.386;6.778;2023-04-06T06:26:36;7.50;;;4.70;;
10090;SDS011;5084;51.386;6.778;2023-04-06T06:29:04;5.77;;;5.17;;
10090;SDS011;5084;51.386;6.778;2023-04-06T06:31:30;5.40;;;4.53;;
10090;SDS011;5084;51.386;6.778;2023-04-06T06:33:56;4.57;;;3.93;;
10090;SDS011;5084;51.386;6.778;2023-04-06T06:36:23;4.83;;;4.33;;
10090;SDS011;5084;51.386;6.778;2023-04-06T06:38:50;4.87;;;4.23;;
10090;SDS011;5084;51.386;6.778;2023-04-06T06:41:16;6.27;;;4.23;;
10090;SDS011;5084;51.386;6.778;2023-04-06T06:43:42;5.70;;;4.50;;
10090;SDS011;5084;51.386;6.778;2023-04-06T06:46:09;4.50;;;3.97;;
10090;SDS011;5084;51.386;6.778;2023-04-06T06:48:35;4.90;;;4.40;;
10090;SDS011;5084;51.386;6.778;2023-04-06T06:51:01;5.63;;;4.70;;
10090;SDS011;5084;51.386;6.778;2023-04-06T06:53:27;8.20;;;4.23;;
10090;SDS011;5084;51.386;6.778;2023-04-06T06:55:54;4.40;;;4.00;;
10090;SDS011;5084;51.386;6.778;2023-04-06T06:58:21;4.83;;;4.40;;
10090;SDS011;5084;51.386;6.778;2023-04-06T07:00:47;6.37;;;4.47;;
10090;SDS011;5084;51.386;6.778;2023-04-06T07:03:13;4.53;;;4.07;;
10090;SDS011;5084;51.386;6.778;2023-04-06T07:05:44;6.27;;;4.60;;
10090;SDS011;5084;51.386;6.778;2023-04-06T07:08:15;8.37;;;4.87;;
10090;SDS011;5084;51.386;6.778;2023-04-06T07:10:41;6.97;;;5.10;;
10090;SDS011;5084;51.386;6.778;2023-04-06T07:13:07;6.83;;;5.57;;
10090;SDS011;5084;51.386;6.778;2023-04-06T07:15:33;7.77;;;5.30;;
10090;SDS011;5084;51.386;6.778;2023-04-06T07:17:59;7.13;;;4.60;;
10090;SDS011;5084;51.386;6.778;2023-04-06T07:20:25;5.77;;;4.73;;
10090;SDS011;5084;51.386;6.778;2023-04-06T07:22:53;7.00;;;5.13;;
10090;SDS011;5084;51.386;6.778;2023-04-06T07:25:19;7.63;;;5.03;;
10090;SDS011;5084;51.386;6.778;2023-04-06T07:27:45;9.00;;;5.43;;
10090;SDS011;5084;51.386;6.778;2023-04-06T07:30:13;7.93;;;5.13;;
10090;SDS011;5084;51.386;6.778;2023-04-06T07:32:39;8.73;;;5.20;;
10090;SDS011;5084;51.386;6.778;2023-04-06T07:35:05;5.67;;;4.93;;
10090;SDS011;5084;51.386;6.778;2023-04-06T07:37:31;5.57;;;4.40;;
10090;SDS011;5084;51.386;6.778;2023-04-06T07:39:57;6.37;;;4.53;;
10090;SDS011;5084;51.386;6.778;2023-04-06T07:42:23;7.27;;;4.63;;
10090;SDS011;5084;51.386;6.778;2023-04-06T07:44:49;6.67;;;5.53;;
10090;SDS011;5084;51.386;6.778;2023-04-06T07:47:15;6.37;;;4.83;;
10090;SDS011;5084;51.386;6.778;2023-04-06T07:49:41;6.20;;;4.73;;
10090;SDS011;5084;51.386;6.778;2023-04-06T07:52:07;10.47;;;4.50;;
10090;SDS011;5084;51.386;6.778;2023-04-06T07:54:33;6.60;;;4.87;;
10090;SDS011;5084;51.386;6.778;2023-04-06T07:57:00;8.30;;;5.13;;
10090;SDS011;5084;51.386;6.778;2023-04-06T07:59:26;6.00;;;4.87;;
10090;SDS011;5084;51.386;6.778;2023-04-06T08:01:52;9.73;;;4.47;;
10090;SDS011;5084;51.386;6.778;2023-04-06T08:04:18;7.13;;;5.70;;
10090;SDS011;5084;51.386;6.778;2023-04-06T08:06:44;6.97;;;5.53;;
10090;SDS011;5084;51.386;6.778;2023-04-06T08:09:10;8.23;;;5.20;;
10090;SDS011;5084;51.386;6.778;2023-04-06T08:11:36;6.87;;;5.70;;
10090;SDS011;5084;51.386;6.778;2023-04-06T08:14:02;6.60;;;5.30;;
10090;SDS011;5084;51.386;6.778;2023-04-06T08:16:28;5.83;;;5.00;;
10090;SDS011;5084;51.386;6.778;2023-04-06T08:18:55;6.57;;;5.00;;
10090;SDS011;5084;51.386;6.778;2023-04-06T08:21:21;6.50;;;5.27;;
10090;SDS011;5084;51.386;6.778;2023-04-06T08:23:47;7.70;;;5.27;;
10090;SDS011;5084;51.386;6.778;2023-04-06T08:26:13;6.87;;;5.10;;
10090;SDS011;5084;51.386;6.778;2023-04-06T08:28:39;7.30;;;5.73;;
10090;SDS011;5084;51.386;6.778;2023-04-06T08:31:05;7.93;;;5.40;;
10090;SDS011;5084;51.386;6.778;2023-04-06T08:33:32;6.63;;;4.87;;
10090;SDS011;5084;51.386;6.778;2023-04-06T08:36:07;6.40;;;5.23;;
10090;SDS011;5084;51.386;6.778;2023-04-06T08:38:33;9.07;;;5.10;;
10090;SDS011;5084;51.386;6.778;2023-04-06T08:41:00;7.40;;;4.70;;
10090;SDS011;5084;51.386;6.778;2023-04-06T08:43:32;4.87;;;3.87;;
10090;SDS011;5084;51.386;6.778;2023-04-06T08:45:58;8.13;;;4.80;;
10090;SDS011;5084;51.386;6.778;2023-04-06T08:48:25;6.93;;;5.57;;
10090;SDS011;5084;51.386;6.778;2023-04-06T08:50:51;7.73;;;5.27;;
10090;SDS011;5084;51.386;6.778;2023-04-06T08:53:17;7.00;;;5.27;;
10090;SDS011;5084;51.386;6.778;2023-04-06T08:55:44;6.00;;;4.47;;
10090;SDS011;5084;51.386;6.778;2023-04-06T08:58:11;7.70;;;5.70;;
10090;SDS011;5084;51.386;6.778;2023-04-06T09:00:37;6.90;;;4.47;;
10090;SDS011;5084;51.386;6.778;2023-04-06T09:03:04;6.77;;;4.50;;
10090;SDS011;5084;51.386;6.778;2023-04-06T09:05:31;4.83;;;4.33;;
10090;SDS011;5084;51.386;6.778;2023-04-06T09:07:57;5.47;;;4.03;;
10090;SDS011;5084;51.386;6.778;2023-04-06T09:10:23;5.50;;;4.50;;
10090;SDS011;5084;51.386;6.778;2023-04-06T09:12:50;7.67;;;5.70;;
10090;SDS011;5084;51.386;6.778;2023-04-06T09:15:17;5.17;;;4.27;;
10090;SDS011;5084;51.386;6.778;2023-04-06T09:17:44;5.70;;;5.00;;
10090;SDS011;5084;51.386;6.778;2023-04-06T09:20:11;5.50;;;4.87;;
10090;SDS011;5084;51.386;6.778;2023-04-06T09:22:37;6.40;;;5.07;;
10090;SDS011;5084;51.386;6.778;2023-04-06T09:25:04;7.73;;;4.77;;
10090;SDS011;5084;51.386;6.778;2023-04-06T09:27:34;6.57;;;5.40;;
10090;SDS011;5084;51.386;6.778;2023-04-06T09:30:07;7.00;;;5.60;;
10090;SDS011;5084;51.386;6.778;2023-04-06T09:32:50;5.83;;;4.23;;
10090;SDS011;5084;51.386;6.778;2023-04-06T09:35:17;6.93;;;5.37;;
10090;SDS011;5084;51.386;6.778;2023-04-06T09:37:49;6.93;;;4.93;;
10090;SDS011;5084;51.386;6.778;2023-04-06T09:40:16;5.90;;;5.07;;
10090;SDS011;5084;51.386;6.778;2023-04-06T09:42:46;10.47;;;6.70;;
10090;SDS011;5084;51.386;6.778;2023-04-06T09:45:13;9.67;;;5.50;;
10090;SDS011;5084;51.386;6.778;2023-04-06T09:47:42;8.57;;;6.83;;
10090;SDS011;5084;51.386;6.778;2023-04-06T09:50:09;8.90;;;5.03;;
10090;SDS011;5084;51.386;6.778;2023-04-06T09:52:49;5.67;;;5.10;;
10090;SDS011;5084;51.386;6.778;2023-04-06T09:55:33;7.53;;;6.20;;
10090;SDS011;5084;51.386;6.778;2023-04-06T09:58:04;8.07;;;6.10;;
10090;SDS011;5084;51.386;6.778;2023-04-06T10:00:32;9.97;;;6.60;;
10090;SDS011;5084;51.386;6.778;2023-04-06T10:03:01;11.80;;;7.07;;
10090;SDS011;5084;51.386;6.778;2023-04-06T10:05:55;8.63;;;5.53;;
10090;SDS011;5084;51.386;6.778;2023-04-06T10:08:19;6.30;;;5.20;;
10090;SDS011;5084;51.386;6.778;2023-04-06T10:10:48;7.17;;;5.30;;
10090;SDS011;5084;51.386;6.778;2023-04-06T10:13:14;8.77;;;6.03;;
10090;SDS011;5084;51.386;6.778;2023-04-06T10:15:41;8.43;;;5.90;;
10090;SDS011;5084;51.386;6.778;2023-04-06T10:18:07;8.57;;;5.77;;
10090;SDS011;5084;51.386;6.778;2023-04-06T10:23:13;12.23;;;7.63;;
10090;SDS011;5084;51.386;6.778;2023-04-06T10:25:51;10.80;;;6.63;;
10090;SDS011;5084;51.386;6.778;2023-04-06T10:28:18;9.97;;;6.10;;
10090;SDS011;5084;51.386;6.778;2023-04-06T10:30:45;8.50;;;5.87;;
10090;SDS011;5084;51.386;6.778;2023-04-06T10:33:14;7.83;;;6.10;;
10090;SDS011;5084;51.386;6.778;2023-04-06T10:35:41;10.13;;;7.10;;
10090;SDS011;5084;51.386;6.778;2023-04-06T10:38:07;14.63;;;7.57;;
10090;SDS011;5084;51.386;6.778;2023-04-06T10:40:37;9.90;;;5.80;;
10090;SDS011;5084;51.386;6.778;2023-04-06T10:45:35;9.00;;;6.27;;
10090;SDS011;5084;51.386;6.778;2023-04-06T10:48:12;9.13;;;6.00;;
10090;SDS011;5084;51.386;6.778;2023-04-06T10:50:38;9.50;;;6.43;;
10090;SDS011;5084;51.386;6.778;2023-04-06T10:53:05;10.43;;;6.70;;
10090;SDS011;5084;51.386;6.778;2023-04-06T10:55:31;7.70;;;5.57;;
10090;SDS011;5084;51.386;6.778;2023-04-06T10:57:57;8.73;;;6.67;;
10090;SDS011;5084;51.386;6.778;2023-04-06T11:00:23;8.53;;;6.40;;
10090;SDS011;5084;51.386;6.778;2023-04-06T11:02:50;8.63;;;7.30;;
10090;SDS011;5084;51.386;6.778;2023-04-06T11:05:16;8.27;;;6.60;;
10090;SDS011;5084;51.386;6.778;2023-04-06T11:07:44;8.73;;;6.20;;
10090;SDS011;5084;51.386;6.778;2023-04-06T11:10:10;8.80;;;6.17;;
10090;SDS011;5084;51.386;6.778;2023-04-06T11:12:36;9.73;;;7.27;;
10090;SDS011;5084;51.386;6.778;2023-04-06T11:15:03;8.83;;;6.73;;
10090;SDS011;5084;51.386;6.778;2023-04-06T11:17:33;11.60;;;7.17;;
10090;SDS011;5084;51.386;6.778;2023-04-06T11:20:00;8.83;;;6.40;;
10090;SDS011;5084;51.386;6.778;2023-04-06T11:22:28;8.03;;;6.30;;
10090;SDS011;5084;51.386;6.778;2023-04-06T11:25:07;10.47;;;7.13;;
10090;SDS011;5084;51.386;6.778;2023-04-06T11:27:33;10.53;;;7.27;;
10090;SDS011;5084;51.386;6.778;2023-04-06T11:30:00;10.43;;;6.83;;
10090;SDS011;5084;51.386;6.778;2023-04-06T11:32:27;11.37;;;7.73;;
10090;SDS011;5084;51.386;6.778;2023-04-06T11:34:53;11.93;;;7.57;;
10090;SDS011;5084;51.386;6.778;2023-04-06T11:37:19;12.57;;;7.97;;
10090;SDS011;5084;51.386;6.778;2023-04-06T11:39:49;10.00;;;7.53;;
10090;SDS011;5084;51.386;6.778;2023-04-06T11:42:25;12.30;;;7.33;;
10090;SDS011;5084;51.386;6.778;2023-04-06T11:44:55;10.03;;;7.50;;
10090;SDS011;5084;51.386;6.778;2023-04-06T11:47:37;10.03;;;8.17;;
10090;SDS011;5084;51.386;6.778;2023-04-06T11:50:07;9.87;;;7.20;;
10090;SDS011;5084;51.386;6.778;2023-04-06T11:52:33;12.53;;;7.90;;
10090;SDS011;5084;51.386;6.778;2023-04-06T11:55:09;9.70;;;7.77;;
10090;SDS011;5084;51.386;6.778;2023-04-06T11:57:35;12.10;;;8.13;;
10090;SDS011;5084;51.386;6.778;2023-04-06T12:00:01;11.67;;;7.33;;
10090;SDS011;5084;51.386;6.778;2023-04-06T12:02:27;10.33;;;7.63;;
10090;SDS011;5084;51.386;6.778;2023-04-06T12:04:54;11.90;;;7.10;;
10090;SDS011;5084;51.386;6.778;2023-04-06T12:07:20;9.67;;;7.30;;
10090;SDS011;5084;51.386;6.778;2023-04-06T12:09:46;11.70;;;8.00;;
10090;SDS011;5084;51.386;6.778;2023-04-06T12:12:12;9.43;;;7.57;;
10090;SDS011;5084;51.386;6.778;2023-04-06T12:14:41;10.37;;;7.17;;
10090;SDS011;5084;51.386;6.778;2023-04-06T12:17:07;11.73;;;8.90;;
10090;SDS011;5084;51.386;6.778;2023-04-06T12:19:33;9.83;;;7.13;;
10090;SDS011;5084;51.386;6.778;2023-04-06T12:21:59;10.07;;;7.70;;
10090;SDS011;5084;51.386;6.778;2023-04-06T12:24:25;10.33;;;7.27;;
10090;SDS011;5084;51.386;6.778;2023-04-06T12:26:51;11.10;;;7.70;;
10090;SDS011;5084;51.386;6.778;2023-04-06T12:29:18;8.73;;;6.93;;
10090;SDS011;5084;51.386;6.778;2023-04-06T12:31:44;8.27;;;7.30;;
10090;SDS011;5084;51.386;6.778;2023-04-06T12:34:11;9.80;;;7.20;;
10090;SDS011;5084;51.386;6.778;2023-04-06T12:36:37;12.47;;;8.67;;
10090;SDS011;5084;51.386;6.778;2023-04-06T12:39:04;12.43;;;9.10;;
10090;SDS011;5084;51.386;6.778;2023-04-06T12:41:30;11.47;;;7.97;;
10090;SDS011;5084;51.386;6.778;2023-04-06T12:43:56;10.23;;;7.70;;
10090;SDS011;5084;51.386;6.778;2023-04-06T12:46:24;9.70;;;7.10;;
10090;SDS011;5084;51.386;6.778;2023-04-06T12:48:51;12.00;;;7.90;;
10090;SDS011;5084;51.386;6.778;2023-04-06T12:51:20;12.13;;;8.83;;
10090;SDS011;5084;51.386;6.778;2023-04-06T12:53:47;12.30;;;9.40;;
10090;SDS011;5084;51.386;6.778;2023-04-06T12:56:14;10.57;;;8.37;;
10090;SDS011;5084;51.386;6.778;2023-04-06T12:58:42;11.80;;;8.83;;
10090;SDS011;5084;51.386;6.778;2023-04-06T13:01:08;13.10;;;8.53;;
10090;SDS011;5084;51.386;6.778;2023-04-06T13:03:34;10.97;;;8.30;;
10090;SDS011;5084;51.386;6.778;2023-04-06T13:06:01;8.73;;;7.67;;
10090;SDS011;5084;51.386;6.778;2023-04-06T13:08:28;10.13;;;7.23;;
10090;SDS011;5084;51.386;6.778;2023-04-06T13:10:54;7.23;;;6.50;;
10090;SDS011;5084;51.386;6.778;2023-04-06T13:13:25;8.83;;;6.70;;
10090;SDS011;5084;51.386;6.778;2023-04-06T13:15:52;9.63;;;7.07;;
10090;SDS011;5084;51.386;6.778;2023-04-06T13:18:18;7.43;;;6.33;;
10090;SDS011;5084;51.386;6.778;2023-04-06T13:20:46;7.73;;;6.33;;
10090;SDS011;5084;51.386;6.778;2023-04-06T13:23:12;9.23;;;6.20;;
10090;SDS011;5084;51.386;6.778;2023-04-06T13:25:38;8.37;;;5.63;;
10090;SDS011;5084;51.386;6.778;2023-04-06T13:28:05;6.60;;;5.43;;
10090;SDS011;5084;51.386;6.778;2023-04-06T13:30:31;8.37;;;5.60;;
10090;SDS011;5084;51.386;6.778;2023-04-06T13:32:57;7.60;;;5.47;;
10090;SDS011;5084;51.386;6.778;2023-04-06T13:35:24;7.57;;;5.60;;
10090;SDS011;5084;51.386;6.778;2023-04-06T13:37:50;6.43;;;5.33;;
10090;SDS011;5084;51.386;6.778;2023-04-06T13:40:17;6.53;;;5.13;;
10090;SDS011;5084;51.386;6.778;2023-04-06T13:42:43;6.10;;;5.27;;
10090;SDS011;5084;51.386;6.778;2023-04-06T13:45:11;7.20;;;5.57;;
10090;SDS011;5084;51.386;6.778;2023-04-06T13:47:37;9.10;;;5.00;;
10090;SDS011;5084;51.386;6.778;2023-04-06T13:50:03;10.00;;;5.23;;
10090;SDS011;5084;51.386;6.778;2023-04-06T13:52:29;5.90;;;5.03;;
10090;SDS011;5084;51.386;6.778;2023-04-06T13:55:05;5.23;;;4.70;;
10090;SDS011;5084;51.386;6.778;2023-04-06T13:57:31;5.47;;;4.47;;
10090;SDS011;5084;51.386;6.778;2023-04-06T13:59:57;5.23;;;4.73;;
10090;SDS011;5084;51.386;6.778;2023-04-06T14:02:23;5.87;;;5.20;;
10090;SDS011;5084;51.386;6.778;2023-04-06T14:04:52;5.67;;;4.63;;
10090;SDS011;5084;51.386;6.778;2023-04-06T14:07:20;6.70;;;5.07;;
10090;SDS011;5084;51.386;6.778;2023-04-06T14:09:47;4.77;;;4.30;;
10090;SDS011;5084;51.386;6.778;2023-04-06T14:12:13;5.47;;;4.80;;
10090;SDS011;5084;51.386;6.778;2023-04-06T14:14:39;5.60;;;4.63;;
10090;SDS011;5084;51.386;6.778;2023-04-06T14:17:05;5.90;;;4.30;;
10090;SDS011;5084;51.386;6.778;2023-04-06T14:19:31;5.73;;;5.00;;
10090;SDS011;5084;51.386;6.778;2023-04-06T14:21:58;4.47;;;4.07;;
10090;SDS011;5084;51.386;6.778;2023-04-06T14:24:25;6.03;;;4.70;;
10090;SDS011;5084;51.386;6.778;2023-04-06T14:26:51;9.63;;;4.20;;
10090;SDS011;5084;51.386;6.778;2023-04-06T14:29:17;4.80;;;4.13;;
10090;SDS011;5084;51.386;6.778;2023-04-06T14:31:45;6.33;;;4.47;;
10090;SDS011;5084;51.386;6.778;2023-04-06T14:34:11;5.17;;;4.40;;
10090;SDS011;5084;51.386;6.778;2023-04-06T14:36:37;5.00;;;4.30;;
10090;SDS011;5084;51.386;6.778;2023-04-06T14:39:03;4.23;;;3.83;;
10090;SDS011;5084;51.386;6.778;2023-04-06T14:41:30;6.03;;;4.10;;
10090;SDS011;5084;51.386;6.778;2023-04-06T14:43:56;5.57;;;5.07;;
10090;SDS011;5084;51.386;6.778;2023-04-06T14:46:23;5.23;;;4.73;;
10090;SDS011;5084;51.386;6.778;2023-04-06T14:48:49;8.27;;;4.20;;
10090;SDS011;5084;51.386;6.778;2023-04-06T14:51:16;5.10;;;4.40;;
10090;SDS011;5084;51.386;6.778;2023-04-06T14:53:42;5.10;;;4.60;;
10090;SDS011;5084;51.386;6.778;2023-04-06T14:56:09;6.50;;;5.17;;
10090;SDS011;5084;51.386;6.778;2023-04-06T14:58:35;5.90;;;5.27;;
10090;SDS011;5084;51.386;6.778;2023-04-06T15:01:01;6.43;;;4.80;;
10090;SDS011;5084;51.386;6.778;2023-04-06T15:03:28;5.13;;;4.63;;